createdAt,value
2018-04-09T00:00:32.080Z,0.00
2018-04-09T00:01:31.968Z,0.00
2018-04-09T00:02:32.040Z,0.00
2018-04-09T00:03:31.970Z,0.00
2018-04-09T00:04:32.041Z,0.00
2018-04-09T00:05:31.976Z,0.00
2018-04-09T00:06:32.041Z,0.00
2018-04-09T00:07:31.977Z,0.00
2018-04-09T00:08:32.040Z,0.00
2018-04-09T00:09:32.042Z,0.00
2018-04-09T00:10:31.976Z,0.00
2018-04-09T00:11:32.058Z,0.00
2018-04-09T00:12:31.967Z,0.00
2018-04-09T00:13:31.950Z,0.00
2018-04-09T00:14:32.061Z,0.00
2018-04-09T00:15:32.070Z,0.00
2018-04-09T00:16:32.002Z,0.00
2018-04-09T00:17:32.015Z,0.00
2018-04-09T00:18:31.952Z,0.00
2018-04-09T00:19:31.973Z,0.00
2018-04-09T00:20:32.072Z,0.00
2018-04-09T00:21:32.063Z,0.00
2018-04-09T00:22:31.992Z,0.00
2018-04-09T00:23:32.082Z,0.00
2018-04-09T00:24:32.033Z,0.00
2018-04-09T00:25:31.993Z,0.00
2018-04-09T00:26:32.036Z,0.00
2018-04-09T00:27:32.000Z,0.00
2018-04-09T00:28:31.984Z,0.00
2018-04-09T00:29:32.057Z,0.00
2018-04-09T00:30:32.095Z,0.00
2018-04-09T00:31:32.100Z,0.00
2018-04-09T00:32:32.062Z,0.00
2018-04-09T00:33:32.032Z,0.00
2018-04-09T00:34:32.069Z,0.00
2018-04-09T00:35:31.982Z,0.00
2018-04-09T00:36:32.123Z,0.00
2018-04-09T00:37:31.980Z,0.00
2018-04-09T00:38:32.087Z,0.00
2018-04-09T00:39:32.067Z,0.00
2018-04-09T00:40:32.034Z,0.00
2018-04-09T00:41:31.983Z,0.00
2018-04-09T00:42:32.082Z,0.00
2018-04-09T00:43:32.075Z,0.00
2018-04-09T00:44:32.077Z,0.00
2018-04-09T00:45:32.104Z,0.00
2018-04-09T00:46:32.101Z,0.00
2018-04-09T00:47:32.107Z,0.00
2018-04-09T00:48:32.089Z,0.00
2018-04-09T00:49:32.079Z,0.00
2018-04-09T00:50:31.993Z,0.00
2018-04-09T00:51:32.106Z,0.00
2018-04-09T00:52:32.052Z,0.00
2018-04-09T00:53:32.009Z,0.00
2018-04-09T00:54:32.083Z,0.00
2018-04-09T00:55:32.009Z,0.00
2018-04-09T00:56:32.083Z,0.00
2018-04-09T00:57:32.010Z,0.00
2018-04-09T00:58:32.084Z,0.00
2018-04-09T00:59:32.046Z,0.00
2018-04-09T01:00:32.133Z,0.00
2018-04-09T01:01:32.014Z,0.00
2018-04-09T01:02:32.054Z,0.00
2018-04-09T01:03:32.016Z,0.00
2018-04-09T01:04:32.074Z,0.00
2018-04-09T01:05:32.012Z,0.00
2018-04-09T01:06:32.090Z,0.00
2018-04-09T01:07:32.013Z,0.00
2018-04-09T01:08:32.014Z,0.00
2018-04-09T01:09:32.095Z,0.00
2018-04-09T01:10:32.016Z,0.00
2018-04-09T01:11:32.026Z,0.00
2018-04-09T01:12:32.110Z,0.00
2018-04-09T01:13:32.117Z,0.00
2018-04-09T01:14:32.120Z,0.00
2018-04-09T01:15:32.118Z,0.00
2018-04-09T01:16:32.056Z,0.00
2018-04-09T01:17:32.028Z,0.00
2018-04-09T01:18:32.027Z,0.00
2018-04-09T01:19:32.094Z,0.00
2018-04-09T01:20:32.098Z,0.00
2018-04-09T01:21:32.013Z,0.00
2018-04-09T01:22:32.088Z,0.00
2018-04-09T01:23:32.096Z,0.00
2018-04-09T01:24:32.152Z,0.00
2018-04-09T01:25:32.129Z,0.00
2018-04-09T01:26:32.128Z,0.00
2018-04-09T01:27:32.118Z,0.00
2018-04-09T01:28:32.107Z,0.00
2018-04-09T01:29:32.104Z,0.00
2018-04-09T01:30:32.096Z,0.00
2018-04-09T01:31:32.100Z,0.00
2018-04-09T01:32:32.044Z,0.00
2018-04-09T01:33:32.095Z,0.00
2018-04-09T01:34:32.016Z,0.00
2018-04-09T01:35:32.096Z,0.00
2018-04-09T01:36:32.051Z,0.00
2018-04-09T01:37:32.096Z,0.00
2018-04-09T01:38:32.031Z,0.00
2018-04-09T01:39:32.098Z,0.00
2018-04-09T01:40:32.023Z,0.00
2018-04-09T01:41:32.096Z,0.00
2018-04-09T01:42:32.039Z,0.00
2018-04-09T01:43:32.037Z,0.00
2018-04-09T01:44:32.037Z,0.00
2018-04-09T01:45:32.112Z,0.00
2018-04-09T01:46:32.114Z,0.00
2018-04-09T01:47:32.038Z,0.00
2018-04-09T01:48:32.038Z,0.00
2018-04-09T01:49:32.038Z,0.00
2018-04-09T01:50:32.112Z,0.00
2018-04-09T01:51:32.046Z,0.00
2018-04-09T01:52:32.047Z,0.00
2018-04-09T01:53:32.107Z,0.00
2018-04-09T01:54:32.200Z,0.00
2018-04-09T01:55:32.135Z,0.00
2018-04-09T01:56:32.150Z,0.00
2018-04-09T01:57:32.145Z,0.00
2018-04-09T01:58:32.114Z,0.00
2018-04-09T01:59:32.051Z,0.00
2018-04-09T02:00:32.094Z,0.00
2018-04-09T02:01:32.116Z,0.00
2018-04-09T02:02:32.109Z,0.00
2018-04-09T02:03:32.035Z,0.00
2018-04-09T02:04:32.111Z,0.00
2018-04-09T02:05:32.040Z,0.00
2018-04-09T02:06:32.120Z,0.00
2018-04-09T02:07:32.043Z,0.00
2018-04-09T02:08:32.113Z,0.00
2018-04-09T02:09:32.037Z,0.00
2018-04-09T02:10:32.117Z,0.00
2018-04-09T02:11:32.041Z,0.00
2018-04-09T02:12:32.125Z,0.00
2018-04-09T02:13:32.127Z,0.00
2018-04-09T02:14:32.129Z,0.00
2018-04-09T02:15:32.090Z,0.00
2018-04-09T02:16:32.130Z,0.00
2018-04-09T02:17:32.127Z,0.00
2018-04-09T02:18:32.128Z,0.00
2018-04-09T02:19:32.135Z,0.00
2018-04-09T02:20:32.137Z,0.00
2018-04-09T02:21:32.064Z,0.00
2018-04-09T02:22:32.077Z,0.00
2018-04-09T02:23:32.127Z,0.00
2018-04-09T02:24:32.062Z,0.00
2018-04-09T02:25:32.062Z,0.00
2018-04-09T02:26:32.139Z,0.00
2018-04-09T02:27:32.157Z,0.00
2018-04-09T02:28:32.031Z,0.00
2018-04-09T02:29:32.092Z,0.00
2018-04-09T02:30:32.067Z,0.00
2018-04-09T02:31:32.033Z,0.00
2018-04-09T02:32:32.106Z,0.00
2018-04-09T02:33:32.136Z,0.00
2018-04-09T02:34:32.116Z,0.00
2018-04-09T02:35:32.059Z,0.00
2018-04-09T02:36:32.168Z,0.00
2018-04-09T02:37:32.150Z,0.00
2018-04-09T02:38:32.125Z,0.00
2018-04-09T02:39:32.099Z,0.00
2018-04-09T02:40:32.200Z,0.00
2018-04-09T02:41:32.113Z,0.00
2018-04-09T02:42:32.141Z,0.00
2018-04-09T02:43:32.067Z,0.00
2018-04-09T02:44:32.173Z,0.00
2018-04-09T02:45:32.208Z,0.00
2018-04-09T02:46:32.143Z,0.00
2018-04-09T02:47:32.069Z,0.00
2018-04-09T02:48:32.128Z,0.00
2018-04-09T02:49:32.152Z,0.00
2018-04-09T02:50:32.087Z,0.00
2018-04-09T02:51:32.085Z,0.00
2018-04-09T02:52:32.083Z,0.00
2018-04-09T02:53:32.155Z,0.00
2018-04-09T02:54:32.152Z,0.00
2018-04-09T02:55:32.199Z,0.00
2018-04-09T02:56:32.080Z,0.00
2018-04-09T02:57:32.191Z,0.00
2018-04-09T02:58:32.089Z,0.00
2018-04-09T02:59:32.085Z,0.00
2018-04-09T03:00:32.157Z,0.00
2018-04-09T03:01:32.084Z,0.00
2018-04-09T03:02:32.161Z,0.00
2018-04-09T03:03:32.136Z,0.00
2018-04-09T03:04:32.192Z,0.00
2018-04-09T03:05:32.193Z,0.00
2018-04-09T03:06:32.168Z,0.00
2018-04-09T03:07:32.124Z,0.00
2018-04-09T03:08:32.162Z,0.00
2018-04-09T03:09:32.077Z,0.00
2018-04-09T03:10:32.094Z,0.00
2018-04-09T03:11:32.160Z,0.00
2018-04-09T03:12:32.087Z,0.00
2018-04-09T03:13:32.154Z,0.00
2018-04-09T03:14:32.081Z,0.00
2018-04-09T03:15:32.154Z,0.00
2018-04-09T03:16:32.093Z,0.00
2018-04-09T03:17:32.159Z,0.00
2018-04-09T03:18:32.116Z,0.00
2018-04-09T03:19:32.159Z,0.00
2018-04-09T03:20:32.088Z,0.00
2018-04-09T03:21:32.158Z,0.00
2018-04-09T03:22:32.147Z,0.00
2018-04-09T03:23:32.206Z,0.00
2018-04-09T03:24:32.072Z,0.00
2018-04-09T03:25:32.197Z,0.00
2018-04-09T03:26:32.072Z,0.00
2018-04-09T03:27:32.089Z,0.00
2018-04-09T03:28:32.195Z,0.00
2018-04-09T03:29:32.152Z,0.00
2018-04-09T03:30:32.152Z,0.00
2018-04-09T03:31:32.142Z,0.00
2018-04-09T03:32:32.190Z,0.00
2018-04-09T03:33:32.179Z,0.00
2018-04-09T03:34:32.161Z,0.00
2018-04-09T03:35:32.106Z,0.00
2018-04-09T03:36:32.165Z,0.00
2018-04-09T03:37:32.109Z,0.00
2018-04-09T03:38:32.143Z,0.00
2018-04-09T03:39:32.063Z,0.00
2018-04-09T03:40:32.138Z,0.00
2018-04-09T03:41:32.070Z,0.00
2018-04-09T03:42:32.081Z,0.00
2018-04-09T03:43:32.114Z,0.00
2018-04-09T03:44:32.239Z,0.00
2018-04-09T03:45:32.177Z,0.00
2018-04-09T03:46:32.099Z,0.00
2018-04-09T03:47:32.122Z,0.00
2018-04-09T03:48:32.181Z,0.00
2018-04-09T03:49:32.180Z,0.00
2018-04-09T03:50:32.219Z,0.00
2018-04-09T03:51:32.211Z,0.00
2018-04-09T03:52:32.152Z,0.00
2018-04-09T03:53:32.184Z,0.00
2018-04-09T03:54:32.182Z,0.00
2018-04-09T03:55:32.213Z,0.00
2018-04-09T03:56:32.244Z,0.00
2018-04-09T03:57:32.222Z,0.00
2018-04-09T03:58:32.221Z,0.00
2018-04-09T03:59:32.093Z,0.00
2018-04-09T04:00:32.224Z,0.00
2018-04-09T04:01:32.224Z,0.00
2018-04-09T04:02:32.099Z,0.00
2018-04-09T04:03:32.153Z,0.00
2018-04-09T04:04:32.095Z,0.00
2018-04-09T04:05:32.267Z,0.00
2018-04-09T04:06:32.153Z,0.00
2018-04-09T04:07:32.220Z,0.00
2018-04-09T04:08:32.100Z,0.00
2018-04-09T04:09:32.200Z,0.00
2018-04-09T04:10:32.131Z,0.00
2018-04-09T04:11:32.204Z,0.00
2018-04-09T04:12:32.192Z,0.00
2018-04-09T04:13:32.124Z,0.00
2018-04-09T04:14:32.191Z,0.00
2018-04-09T04:15:32.122Z,0.00
2018-04-09T04:16:32.194Z,0.00
2018-04-09T04:17:32.125Z,0.00
2018-04-09T04:18:32.195Z,0.00
2018-04-09T04:19:32.125Z,0.00
2018-04-09T04:20:32.196Z,0.00
2018-04-09T04:21:32.130Z,0.00
2018-04-09T04:22:32.201Z,0.00
2018-04-09T04:23:32.173Z,0.00
2018-04-09T04:24:32.226Z,0.00
2018-04-09T04:25:32.211Z,0.00
2018-04-09T04:26:32.185Z,0.00
2018-04-09T04:27:32.168Z,0.00
2018-04-09T04:28:32.287Z,0.00
2018-04-09T04:29:32.236Z,0.00
2018-04-09T04:30:32.125Z,0.00
2018-04-09T04:31:32.239Z,0.00
2018-04-09T04:32:32.247Z,0.00
2018-04-09T04:33:32.285Z,0.00
2018-04-09T04:34:32.127Z,0.00
2018-04-09T04:35:32.208Z,0.00
2018-04-09T04:36:32.176Z,0.00
2018-04-09T04:37:32.181Z,0.00
2018-04-09T04:38:32.244Z,0.00
2018-04-09T04:39:32.214Z,0.00
2018-04-09T04:40:32.193Z,0.00
2018-04-09T04:41:32.253Z,0.00
2018-04-09T04:42:32.251Z,0.00
2018-04-09T04:43:32.235Z,0.00
2018-04-09T04:44:32.222Z,0.00
2018-04-09T04:45:32.137Z,0.00
2018-04-09T04:46:32.280Z,0.00
2018-04-09T04:47:32.277Z,0.00
2018-04-09T04:48:32.200Z,0.00
2018-04-09T04:49:32.184Z,0.00
2018-04-09T04:50:32.142Z,0.00
2018-04-09T04:51:32.222Z,0.00
2018-04-09T04:52:32.143Z,0.00
2018-04-09T04:53:32.221Z,0.00
2018-04-09T04:54:32.221Z,0.00
2018-04-09T04:55:32.201Z,0.00
2018-04-09T04:56:32.226Z,1.00
2018-04-09T04:57:32.191Z,1.00
2018-04-09T04:58:32.144Z,1.00
2018-04-09T04:59:32.191Z,1.00
2018-04-09T05:00:32.125Z,1.00
2018-04-09T05:01:32.228Z,1.00
2018-04-09T05:02:32.219Z,2.00
2018-04-09T05:03:32.214Z,2.00
2018-04-09T05:04:32.191Z,2.00
2018-04-09T05:05:32.109Z,2.00
2018-04-09T05:06:32.132Z,2.00
2018-04-09T05:07:32.221Z,2.00
2018-04-09T05:08:32.177Z,2.00
2018-04-09T05:09:32.161Z,3.00
2018-04-09T05:10:32.137Z,3.00
2018-04-09T05:11:32.256Z,3.00
2018-04-09T05:12:32.225Z,3.00
2018-04-09T05:13:32.227Z,3.00
2018-04-09T05:14:32.223Z,3.00
2018-04-09T05:15:32.191Z,3.00
2018-04-09T05:16:32.189Z,4.00
2018-04-09T05:17:32.111Z,4.00
2018-04-09T05:18:32.141Z,4.00
2018-04-09T05:19:32.227Z,4.00
2018-04-09T05:20:32.226Z,4.00
2018-04-09T05:21:32.233Z,4.00
2018-04-09T05:22:32.174Z,4.00
2018-04-09T05:23:32.177Z,5.00
2018-04-09T05:24:32.226Z,5.00
2018-04-09T05:25:32.215Z,5.00
2018-04-09T05:26:32.219Z,5.00
2018-04-09T05:27:32.172Z,5.00
2018-04-09T05:28:32.172Z,5.00
2018-04-09T05:29:32.176Z,6.00
2018-04-09T05:30:32.180Z,6.00
2018-04-09T05:31:32.176Z,6.00
2018-04-09T05:32:32.144Z,6.00
2018-04-09T05:33:32.246Z,6.00
2018-04-09T05:34:32.209Z,6.00
2018-04-09T05:35:32.277Z,7.00
2018-04-09T05:36:32.284Z,7.00
2018-04-09T05:37:32.236Z,7.00
2018-04-09T05:38:32.245Z,7.00
2018-04-09T05:39:32.250Z,7.00
2018-04-09T05:40:32.214Z,8.00
2018-04-09T05:41:32.308Z,8.00
2018-04-09T05:42:32.207Z,8.00
2018-04-09T05:43:32.244Z,8.00
2018-04-09T05:44:32.240Z,8.00
2018-04-09T05:45:32.181Z,8.00
2018-04-09T05:46:32.189Z,9.00
2018-04-09T05:47:32.173Z,9.00
2018-04-09T05:48:32.126Z,11.00
2018-04-09T05:49:32.251Z,12.00
2018-04-09T05:50:32.249Z,13.00
2018-04-09T05:51:32.253Z,14.00
2018-04-09T05:52:32.353Z,14.00
2018-04-09T05:53:32.262Z,15.00
2018-04-09T05:54:32.222Z,15.00
2018-04-09T05:55:32.178Z,15.00
2018-04-09T05:56:32.257Z,16.00
2018-04-09T05:57:32.195Z,16.00
2018-04-09T05:58:32.188Z,17.00
2018-04-09T05:59:32.301Z,17.00
2018-04-09T06:00:32.183Z,17.00
2018-04-09T06:01:32.306Z,18.00
2018-04-09T06:02:32.225Z,18.00
2018-04-09T06:03:32.191Z,18.00
2018-04-09T06:04:32.244Z,19.00
2018-04-09T06:05:32.337Z,19.00
2018-04-09T06:06:32.321Z,20.00
2018-04-09T06:07:32.243Z,20.00
2018-04-09T06:08:32.304Z,20.00
2018-04-09T06:09:32.265Z,21.00
2018-04-09T06:10:32.170Z,21.00
2018-04-09T06:11:32.295Z,21.00
2018-04-09T06:12:32.201Z,22.00
2018-04-09T06:13:32.269Z,22.00
2018-04-09T06:14:32.205Z,22.00
2018-04-09T06:15:32.170Z,23.00
2018-04-09T06:16:32.203Z,23.00
2018-04-09T06:17:32.275Z,23.00
2018-04-09T06:18:32.271Z,24.00
2018-04-09T06:19:32.213Z,24.00
2018-04-09T06:20:32.208Z,25.00
2018-04-09T06:21:32.277Z,25.00
2018-04-09T06:22:32.305Z,25.00
2018-04-09T06:23:32.315Z,26.00
2018-04-09T06:24:32.301Z,26.00
2018-04-09T06:25:32.301Z,26.00
2018-04-09T06:26:32.256Z,27.00
2018-04-09T06:27:32.301Z,27.00
2018-04-09T06:28:32.252Z,27.00
2018-04-09T06:29:32.289Z,28.00
2018-04-09T06:30:32.260Z,28.00
2018-04-09T06:31:32.285Z,28.00
2018-04-09T06:32:32.183Z,29.00
2018-04-09T06:33:32.167Z,29.00
2018-04-09T06:35:32.140Z,30.00
2018-04-09T06:36:32.234Z,30.00
2018-04-09T06:37:32.212Z,31.00
2018-04-09T06:38:32.143Z,31.00
2018-04-09T06:39:32.141Z,31.00
2018-04-09T06:40:32.192Z,32.00
2018-04-09T06:41:32.236Z,32.00
2018-04-09T06:42:32.220Z,33.00
2018-04-09T06:43:32.220Z,33.00
2018-04-09T06:44:32.293Z,33.00
2018-04-09T06:45:32.302Z,34.00
2018-04-09T06:46:32.220Z,34.00
2018-04-09T06:47:32.294Z,34.00
2018-04-09T06:48:32.230Z,34.00
2018-04-09T06:49:32.295Z,35.00
2018-04-09T06:50:32.329Z,35.00
2018-04-09T06:51:32.222Z,36.00
2018-04-09T06:52:32.264Z,36.00
2018-04-09T06:53:32.330Z,36.00
2018-04-09T06:54:32.317Z,36.00
2018-04-09T06:55:32.312Z,37.00
2018-04-09T06:56:32.294Z,37.00
2018-04-09T06:57:32.335Z,37.00
2018-04-09T06:58:32.299Z,38.00
2018-04-09T06:59:32.317Z,38.00
2018-04-09T07:00:32.264Z,39.00
2018-04-09T07:01:32.323Z,39.00
2018-04-09T07:02:32.297Z,39.00
2018-04-09T07:03:32.303Z,40.00
2018-04-09T07:04:32.319Z,40.00
2018-04-09T07:05:32.306Z,41.00
2018-04-09T07:06:32.217Z,41.00
2018-04-09T07:07:32.299Z,41.00
2018-04-09T07:08:32.341Z,42.00
2018-04-09T07:09:32.278Z,42.00
2018-04-09T07:10:32.333Z,43.00
2018-04-09T07:11:32.237Z,43.00
2018-04-09T07:12:32.340Z,44.00
2018-04-09T07:13:32.276Z,44.00
2018-04-09T07:14:32.229Z,45.00
2018-04-09T07:15:32.226Z,45.00
2018-04-09T07:16:32.289Z,46.00
2018-04-09T07:17:32.234Z,47.00
2018-04-09T07:18:32.289Z,47.00
2018-04-09T07:19:32.231Z,47.00
2018-04-09T07:20:32.272Z,48.00
2018-04-09T07:21:32.238Z,48.00
2018-04-09T07:22:32.316Z,49.00
2018-04-09T07:23:32.245Z,50.00
2018-04-09T07:24:32.314Z,50.00
2018-04-09T07:25:32.248Z,50.00
2018-04-09T07:26:32.320Z,51.00
2018-04-09T07:27:32.206Z,51.00
2018-04-09T07:28:32.244Z,52.00
2018-04-09T07:29:32.318Z,52.00
2018-04-09T07:30:32.248Z,52.00
2018-04-09T07:31:32.322Z,52.00
2018-04-09T07:32:32.272Z,52.00
2018-04-09T07:33:32.344Z,53.00
2018-04-09T07:34:32.217Z,53.00
2018-04-09T07:35:32.320Z,53.00
2018-04-09T07:36:32.228Z,54.00
2018-04-09T07:37:32.300Z,55.00
2018-04-09T07:38:32.229Z,55.00
2018-04-09T07:39:32.322Z,56.00
2018-04-09T07:40:32.342Z,56.00
2018-04-09T07:41:32.262Z,57.00
2018-04-09T07:42:32.260Z,58.00
2018-04-09T07:43:32.269Z,59.00
2018-04-09T07:44:32.141Z,60.00
2018-04-09T07:45:32.171Z,60.00
2018-04-09T07:46:32.146Z,61.00
2018-04-09T07:47:32.151Z,62.00
2018-04-09T07:48:32.175Z,64.00
2018-04-09T07:49:32.197Z,65.00
2018-04-09T07:50:32.144Z,66.00
2018-04-09T07:51:32.255Z,67.00
2018-04-09T07:52:32.202Z,68.00
2018-04-09T07:53:32.311Z,69.00
2018-04-09T07:54:32.334Z,70.00
2018-04-09T07:55:32.238Z,71.00
2018-04-09T07:56:32.299Z,72.00
2018-04-09T07:57:32.258Z,73.00
2018-04-09T07:58:32.354Z,72.00
2018-04-09T07:59:32.330Z,67.00
2018-04-09T08:00:32.238Z,58.00
2018-04-09T08:01:32.327Z,59.00
2018-04-09T08:02:32.328Z,62.00
2018-04-09T08:03:32.299Z,60.00
2018-04-09T08:04:32.331Z,50.00
2018-04-09T08:05:32.332Z,43.00
2018-04-09T08:06:32.224Z,39.00
2018-04-09T08:07:32.259Z,36.00
2018-04-09T08:08:32.334Z,34.00
2018-04-09T08:09:32.332Z,36.00
2018-04-09T08:10:32.237Z,38.00
2018-04-09T08:11:32.335Z,45.00
2018-04-09T08:12:32.261Z,48.00
2018-04-09T08:13:32.275Z,49.00
2018-04-09T08:14:32.278Z,48.00
2018-04-09T08:15:32.249Z,58.00
2018-04-09T08:16:32.347Z,60.00
2018-04-09T08:17:32.446Z,60.00
2018-04-09T08:18:32.347Z,53.00
2018-04-09T08:19:32.278Z,43.00
2018-04-09T08:20:32.351Z,43.00
2018-04-09T08:21:32.282Z,43.00
2018-04-09T08:22:32.281Z,37.00
2018-04-09T08:23:32.351Z,38.00
2018-04-09T08:24:32.292Z,36.00
2018-04-09T08:25:32.355Z,34.00
2018-04-09T08:26:32.283Z,42.00
2018-04-09T08:27:32.354Z,38.00
2018-04-09T08:28:32.287Z,36.00
2018-04-09T08:29:32.284Z,36.00
2018-04-09T08:30:32.287Z,42.00
2018-04-09T08:31:32.289Z,52.00
2018-04-09T08:32:32.357Z,58.00
2018-04-09T08:33:32.353Z,58.00
2018-04-09T08:34:32.281Z,52.00
2018-04-09T08:35:32.357Z,57.00
2018-04-09T08:36:32.362Z,63.00
2018-04-09T08:37:32.263Z,70.00
2018-04-09T08:38:32.321Z,78.00
2018-04-09T08:39:32.320Z,77.00
2018-04-09T08:40:32.360Z,66.00
2018-04-09T08:41:32.417Z,68.00
2018-04-09T08:42:32.406Z,76.00
2018-04-09T08:43:32.287Z,73.00
2018-04-09T08:44:32.280Z,73.00
2018-04-09T08:45:32.305Z,74.00
2018-04-09T08:46:32.360Z,81.00
2018-04-09T08:47:32.353Z,85.00
2018-04-09T08:48:32.290Z,71.00
2018-04-09T08:49:32.361Z,82.00
2018-04-09T08:50:32.353Z,78.00
2018-04-09T08:51:32.323Z,82.00
2018-04-09T08:52:32.443Z,73.00
2018-04-09T08:53:32.255Z,73.00
2018-04-09T08:54:32.290Z,69.00
2018-04-09T08:55:32.368Z,73.00
2018-04-09T08:56:32.296Z,84.00
2018-04-09T08:57:32.336Z,83.00
2018-04-09T08:58:32.364Z,86.00
2018-04-09T08:59:32.288Z,80.00
2018-04-09T09:00:32.367Z,66.00
2018-04-09T09:01:32.335Z,67.00
2018-04-09T09:02:32.248Z,62.00
2018-04-09T09:03:32.378Z,65.00
2018-04-09T09:04:32.307Z,59.00
2018-04-09T09:05:32.381Z,59.00
2018-04-09T09:06:32.309Z,57.00
2018-04-09T09:07:32.382Z,64.00
2018-04-09T09:08:32.318Z,61.00
2018-04-09T09:09:32.382Z,59.00
2018-04-09T09:10:32.383Z,76.00
2018-04-09T09:11:32.310Z,87.00
2018-04-09T09:12:32.387Z,79.00
2018-04-09T09:13:32.386Z,83.00
2018-04-09T09:14:32.312Z,85.00
2018-04-09T09:15:32.401Z,75.00
2018-04-09T09:16:32.392Z,82.00
2018-04-09T09:17:32.351Z,66.00
2018-04-09T09:18:32.321Z,69.00
2018-04-09T09:19:32.319Z,64.00
2018-04-09T09:20:32.323Z,59.00
2018-04-09T09:21:32.388Z,63.00
2018-04-09T09:22:32.396Z,67.00
2018-04-09T09:23:32.215Z,52.00
2018-04-09T09:24:32.236Z,48.00
2018-04-09T09:25:32.265Z,45.00
2018-04-09T09:26:32.320Z,41.00
2018-04-09T09:27:32.264Z,39.00
2018-04-09T09:28:32.241Z,41.00
2018-04-09T09:29:32.220Z,46.00
2018-04-09T09:30:32.326Z,81.00
2018-04-09T09:31:32.280Z,81.00
2018-04-09T09:32:32.208Z,70.00
2018-04-09T09:33:32.298Z,58.00
2018-04-09T09:34:32.369Z,51.00
2018-04-09T09:35:32.376Z,48.00
2018-04-09T09:36:32.370Z,51.00
2018-04-09T09:37:32.495Z,68.00
2018-04-09T09:38:32.415Z,86.00
2018-04-09T09:39:32.414Z,93.00
2018-04-09T09:40:32.436Z,92.00
2018-04-09T09:41:32.429Z,97.00
2018-04-09T09:42:32.443Z,90.00
2018-04-09T09:43:32.377Z,90.00
2018-04-09T09:44:32.423Z,73.00
2018-04-09T09:45:32.363Z,66.00
2018-04-09T09:46:32.442Z,73.00
2018-04-09T09:47:32.438Z,74.00
2018-04-09T09:48:32.426Z,66.00
2018-04-09T09:49:32.406Z,61.00
2018-04-09T09:50:32.307Z,66.00
2018-04-09T09:51:32.424Z,67.00
2018-04-09T09:52:32.409Z,60.00
2018-04-09T09:53:32.404Z,50.00
2018-04-09T09:54:32.429Z,47.00
2018-04-09T09:55:32.381Z,49.00
2018-04-09T09:56:32.429Z,48.00
2018-04-09T09:57:32.327Z,51.00
2018-04-09T09:58:32.385Z,57.00
2018-04-09T09:59:32.430Z,63.00
2018-04-09T10:00:32.394Z,98.00
2018-04-09T10:01:32.309Z,99.00
2018-04-09T10:02:32.442Z,97.00
2018-04-09T10:03:32.427Z,76.00
2018-04-09T10:04:32.330Z,65.00
2018-04-09T10:05:32.444Z,54.00
2018-04-09T10:06:32.438Z,58.00
2018-04-09T10:07:32.412Z,51.00
2018-04-09T10:08:32.444Z,51.00
2018-04-09T10:09:32.381Z,51.00
2018-04-09T10:10:32.442Z,51.00
2018-04-09T10:11:32.439Z,58.00
2018-04-09T10:12:32.449Z,69.00
2018-04-09T10:13:32.285Z,98.00
2018-04-09T10:14:32.354Z,94.00
2018-04-09T10:15:32.336Z,79.00
2018-04-09T10:16:32.322Z,68.00
2018-04-09T10:17:32.290Z,86.00
2018-04-09T10:18:32.413Z,74.00
2018-04-09T10:19:32.416Z,59.00
2018-04-09T10:20:32.332Z,57.00
2018-04-09T10:21:32.405Z,56.00
2018-04-09T10:22:32.288Z,62.00
2018-04-09T10:23:32.422Z,60.00
2018-04-09T10:24:32.353Z,69.00
2018-04-09T10:25:32.431Z,78.00
2018-04-09T10:26:32.361Z,79.00
2018-04-09T10:27:32.427Z,77.00
2018-04-09T10:28:32.365Z,72.00
2018-04-09T10:29:32.425Z,67.00
2018-04-09T10:30:32.431Z,63.00
2018-04-09T10:31:32.362Z,56.00
2018-04-09T10:32:32.430Z,53.00
2018-04-09T10:33:32.361Z,60.00
2018-04-09T10:34:32.393Z,69.00
2018-04-09T10:35:32.365Z,70.00
2018-04-09T10:36:32.366Z,59.00
2018-04-09T10:37:32.426Z,49.00
2018-04-09T10:38:32.362Z,49.00
2018-04-09T10:39:32.363Z,49.00
2018-04-09T10:40:32.434Z,49.00
2018-04-09T10:41:32.365Z,47.00
2018-04-09T10:42:32.441Z,46.00
2018-04-09T10:43:32.435Z,49.00
2018-04-09T10:44:32.368Z,46.00
2018-04-09T10:45:32.400Z,50.00
2018-04-09T10:46:32.438Z,47.00
2018-04-09T10:47:32.440Z,45.00
2018-04-09T10:48:32.435Z,44.00
2018-04-09T10:49:32.444Z,44.00
2018-04-09T10:50:32.373Z,44.00
2018-04-09T10:51:32.443Z,45.00
2018-04-09T10:52:32.439Z,43.00
2018-04-09T10:53:32.482Z,42.00
2018-04-09T10:54:32.401Z,40.00
2018-04-09T10:55:32.351Z,40.00
2018-04-09T10:56:32.471Z,40.00
2018-04-09T10:57:32.398Z,39.00
2018-04-09T10:58:32.401Z,38.00
2018-04-09T10:59:32.491Z,38.00
2018-04-09T11:00:32.402Z,38.00
2018-04-09T11:01:32.386Z,38.00
2018-04-09T11:02:32.413Z,39.00
2018-04-09T11:03:32.488Z,39.00
2018-04-09T11:04:32.475Z,39.00
2018-04-09T11:05:32.470Z,39.00
2018-04-09T11:06:32.450Z,39.00
2018-04-09T11:07:32.420Z,39.00
2018-04-09T11:08:32.495Z,40.00
2018-04-09T11:09:32.448Z,39.00
2018-04-09T11:10:32.419Z,39.00
2018-04-09T11:11:32.449Z,40.00
2018-04-09T11:12:32.437Z,40.00
2018-04-09T11:13:32.494Z,41.00
2018-04-09T11:14:32.472Z,41.00
2018-04-09T11:15:32.451Z,41.00
2018-04-09T11:16:32.475Z,43.00
2018-04-09T11:17:32.484Z,44.00
2018-04-09T11:18:32.420Z,47.00
2018-04-09T11:19:32.479Z,51.00
2018-04-09T11:20:32.420Z,52.00
2018-04-09T11:21:32.493Z,59.00
2018-04-09T11:22:32.412Z,57.00
2018-04-09T11:23:32.393Z,62.00
2018-04-09T11:24:32.463Z,76.00
2018-04-09T11:25:32.468Z,67.00
2018-04-09T11:26:32.474Z,58.00
2018-04-09T11:27:32.399Z,55.00
2018-04-09T11:28:32.468Z,62.00
2018-04-09T11:29:32.471Z,71.00
2018-04-09T11:30:32.397Z,80.00
2018-04-09T11:31:32.467Z,71.00
2018-04-09T11:32:32.396Z,50.00
2018-04-09T11:33:32.484Z,47.00
2018-04-09T11:34:32.441Z,44.00
2018-04-09T11:35:32.464Z,42.00
2018-04-09T11:36:32.512Z,41.00
2018-04-09T11:37:32.373Z,41.00
2018-04-09T11:38:32.375Z,40.00
2018-04-09T11:39:32.383Z,41.00
2018-04-09T11:40:32.441Z,41.00
2018-04-09T11:41:32.475Z,44.00
2018-04-09T11:42:32.443Z,46.00
2018-04-09T11:43:32.384Z,49.00
2018-04-09T11:44:32.380Z,51.00
2018-04-09T11:45:32.381Z,65.00
2018-04-09T11:46:32.440Z,87.00
2018-04-09T11:47:32.508Z,82.00
2018-04-09T11:48:32.398Z,92.00
2018-04-09T11:49:32.518Z,99.00
2018-04-09T11:50:32.460Z,99.00
2018-04-09T11:51:32.480Z,89.00
2018-04-09T11:52:32.504Z,92.00
2018-04-09T11:53:32.510Z,98.00
2018-04-09T11:54:32.421Z,91.00
2018-04-09T11:55:32.524Z,78.00
2018-04-09T11:56:32.491Z,78.00
2018-04-09T11:57:32.463Z,68.00
2018-04-09T11:58:32.508Z,58.00
2018-04-09T11:59:32.627Z,52.00
2018-04-09T12:00:32.503Z,49.00
2018-04-09T12:01:32.520Z,50.00
2018-04-09T12:02:32.520Z,46.00
2018-04-09T12:03:32.421Z,55.00
2018-04-09T12:04:32.420Z,71.00
2018-04-09T12:05:32.493Z,72.00
2018-04-09T12:06:32.420Z,72.00
2018-04-09T12:07:32.431Z,71.00
2018-04-09T12:08:32.496Z,70.00
2018-04-09T12:09:32.428Z,61.00
2018-04-09T12:10:32.420Z,56.00
2018-04-09T12:11:32.493Z,50.00
2018-04-09T12:12:32.444Z,46.00
2018-04-09T12:13:32.525Z,42.00
2018-04-09T12:14:32.493Z,40.00
2018-04-09T12:15:32.498Z,38.00
2018-04-09T12:16:32.495Z,38.00
2018-04-09T12:17:32.459Z,38.00
2018-04-09T12:18:32.518Z,37.00
2018-04-09T12:19:32.526Z,37.00
2018-04-09T12:20:32.500Z,37.00
2018-04-09T12:21:32.407Z,37.00
2018-04-09T12:22:32.476Z,37.00
2018-04-09T12:23:32.466Z,38.00
2018-04-09T12:24:32.433Z,38.00
2018-04-09T12:25:32.509Z,39.00
2018-04-09T12:26:32.435Z,40.00
2018-04-09T12:27:32.446Z,40.00
2018-04-09T12:28:32.506Z,43.00
2018-04-09T12:29:32.435Z,44.00
2018-04-09T12:30:32.510Z,45.00
2018-04-09T12:31:32.525Z,45.00
2018-04-09T12:32:32.438Z,49.00
2018-04-09T12:33:32.411Z,54.00
2018-04-09T12:34:32.447Z,57.00
2018-04-09T12:35:32.472Z,67.00
2018-04-09T12:36:32.532Z,71.00
2018-04-09T12:37:32.478Z,81.00
2018-04-09T12:38:32.535Z,95.00
2018-04-09T12:39:32.433Z,94.00
2018-04-09T12:40:32.431Z,91.00
2018-04-09T12:41:32.421Z,93.00
2018-04-09T12:42:32.572Z,72.00
2018-04-09T12:43:32.381Z,72.00
2018-04-09T12:44:32.388Z,68.00
2018-04-09T12:45:32.509Z,72.00
2018-04-09T12:46:32.549Z,82.00
2018-04-09T12:47:32.435Z,80.00
2018-04-09T12:48:32.381Z,79.00
2018-04-09T12:49:32.425Z,74.00
2018-04-09T12:50:32.459Z,76.00
2018-04-09T12:51:32.516Z,76.00
2018-04-09T12:52:32.454Z,70.00
2018-04-09T12:53:32.544Z,62.00
2018-04-09T12:54:32.539Z,79.00
2018-04-09T12:55:32.519Z,82.00
2018-04-09T12:56:32.430Z,78.00
2018-04-09T12:57:32.495Z,63.00
2018-04-09T12:58:32.493Z,49.00
2018-04-09T12:59:32.557Z,41.00
2018-04-09T13:00:32.496Z,39.00
2018-04-09T13:01:32.583Z,37.00
2018-04-09T13:02:32.552Z,38.00
2018-04-09T13:03:32.525Z,36.00
2018-04-09T13:04:32.449Z,40.00